Archival Weather

Chicago O'Hare International

Chicago, Illinois (KORD)

Report from: Tuesday, May 2, 2023 1:51 AM CDT
Current time: Sunday, February 25, 2024 3:41 PM CST

Current weather – Weather history – Daily summaries
Weather forecast

Temperature7.2°C (45.0°F)
Wind chill3.8°C (38.9°F)
Dew point0.6°C (33.1°F)
Winds 11 kts (5.7 m/s, 12.7 mph) Northwest (310°)
Visibility10 mi. (16.1 km)
Clouds Scattered clouds 11,000 ft. (3,353 m)
Ceiling: Broken clouds 25,000 ft. (7,620 m)
Altimeter29.52 in.Hg (1000 mB)
Relative humidity63 %
Density altitude-382 ft. (-116 m)
Sea-level pressure100.0 kPa (1000 mB, 29.52 in.Hg)
Remarks Automated weather observing station with precipitation discriminator
Flight conditions Visual Meteorological Conditions
Raw dataKORD 020651Z 31011KT 10SM SCT110 BKN250 07/01 A2952 RMK AO2 SLP998 T00720006
An error has occurred. This application may no longer respond until reloaded. Reload 🗙